Latest Weather Observations for Skiway South*

IDT60801

Issued at 12:32 pm EDT Friday 9 December 2016 (issued every 30 minutes, with the page automatically refreshed every 10 minutes)

About weather observations | Map of weather stations | Latest weather observations for ANT | Other Formats
Station Details ID: 300060 Name: CASEY SKIWAY SOUTH Lat: -66.28 Lon: 110.76 Height: 390.0 m
Data from the previous 72 hours. | See also: Recent months for locations in Antarctica
Date/Time
EDT
Temp
°C
App
Temp
°C
Dew
Point
°C
Rel
Hum
%
Delta-T
°C
Wind Press
QNH
hPa
Press
MSL
hPa
Rain since
9am
mm
Dir  Spd
km/h
Gust
km/h
Spd
kts
Gust
kts
09/12:30pm -2.6 -11.0 -9.9 57 1.9 E 28 37 15 20 985.0 - -
09/12:02pm -2.9 -11.7 -10.0 58 1.9 E 30 44 16 24 984.8 - -
09/12:00pm -2.9 -12.0 -10.0 58 1.9 E 32 44 17 24 984.9 - -
09/11:32am -3.6 -12.3 -9.4 64 1.5 E 30 37 16 20 984.8 - -
09/11:30am -3.6 -12.7 -9.4 64 1.5 E 32 39 17 21 984.9 - -
09/11:04am - - - - - - - - - - - - -
09/11:02am -4.4 -14.5 -10.0 65 1.3 E 37 46 20 25 984.8 - -
09/11:00am -4.4 -14.5 -9.8 66 1.3 E 37 46 20 25 984.8 - -
09/10:32am -4.5 -14.6 -10.1 65 1.3 E 37 44 20 24 984.9 - -
09/10:30am -4.5 -14.6 -10.1 65 1.3 E 37 44 20 24 984.9 - -
09/10:02am -4.9 -14.3 -10.4 65 1.3 E 33 41 18 22 984.9 - -
09/10:00am -4.9 -14.3 -10.4 65 1.3 E 33 41 18 22 984.9 - -
09/09:32am -5.6 -15.0 -10.9 66 1.2 E 33 39 18 21 985.0 - -
09/09:30am -5.7 -15.1 -11.0 66 1.1 E 33 39 18 21 984.9 - -
09/09:02am -6.5 -15.7 -11.6 67 1.0 E 32 37 17 20 985.0 - -
09/09:00am -6.4 -15.6 -11.5 67 1.0 E 32 37 17 20 985.0 - -
09/08:32am -6.3 -15.2 -11.6 66 1.1 E 30 35 16 19 985.2 - -
09/08:30am -6.2 -15.5 -11.9 64 1.2 E 32 37 17 20 985.2 - -
09/08:04am - - - - - - - - - - - - -
09/08:02am -6.8 -15.7 -12.4 64 1.1 E 30 35 16 19 985.2 - -
09/08:00am -6.6 -15.5 -12.1 65 1.1 E 30 35 16 19 985.3 - -
09/07:32am -8.3 -16.9 -12.6 71 0.7 E 28 32 15 17 985.3 - -
09/07:30am -8.6 -17.2 -12.9 71 0.7 E 28 32 15 17 985.3 - -
09/07:02am -9.1 -17.7 -13.4 71 0.7 ESE 28 30 15 16 985.4 - -
09/07:00am -9.0 -17.6 -13.3 71 0.7 ESE 28 32 15 17 985.4 - -
09/06:32am -7.4 -15.1 -11.6 72 0.8 ESE 24 26 13 14 985.4 - -
09/06:30am -7.3 -14.6 -11.5 72 0.8 ESE 22 26 12 14 985.4 - -
09/06:02am -6.9 -14.2 -11.1 72 0.8 ESE 22 24 12 13 985.5 - -
09/06:00am -6.8 -14.1 -11.0 72 0.8 ESE 22 24 12 13 985.5 - -
09/05:32am -6.5 -13.4 -10.5 73 0.8 E 20 24 11 13 985.6 - -
09/05:30am -6.5 -13.8 -10.5 73 0.8 E 22 24 12 13 985.6 - -
09/05:04am - - - - - - - - - - - - -
09/05:02am -6.5 -14.2 -10.7 72 0.8 ESE 24 30 13 16 985.6 - -
09/05:00am -6.5 -14.5 -10.7 72 0.9 ESE 26 30 14 16 985.6 - -
09/04:32am -6.3 -13.6 -10.5 72 0.9 E 22 28 12 15 985.8 - -
09/04:30am -6.3 -14.0 -10.7 71 0.9 E 24 28 13 15 985.8 - -
09/04:02am -6.3 -14.3 -10.5 72 0.9 E 26 30 14 16 985.9 - -
09/04:00am -6.3 -14.3 -10.5 72 0.9 E 26 30 14 16 985.9 - -
09/03:32am -6.5 -15.3 -10.3 74 0.8 E 30 32 16 17 985.9 - -
09/03:30am -6.5 -15.3 -10.5 73 0.8 E 30 33 16 18 985.8 - -
09/03:02am -7.1 -15.5 -10.8 75 0.7 E 28 30 15 16 985.7 - -
09/03:00am -7.2 -15.2 -10.7 76 0.6 E 26 30 14 16 985.7 - -
09/02:32am -9.2 -17.4 -12.6 76 0.5 E 26 28 14 15 985.9 - -
09/02:30am -9.2 -17.4 -12.8 75 0.5 E 26 28 14 15 985.9 - -
09/02:04am - - - - - - - - - - - - -
09/02:02am -8.3 -16.4 -12.1 74 0.6 E 26 28 14 15 985.9 - -
09/02:00am -8.4 -16.5 -12.2 74 0.6 E 26 28 14 15 985.9 - -
09/01:32am -7.5 -16.7 -11.1 75 0.6 E 32 35 17 19 985.9 - -
09/01:30am -7.5 -16.7 -11.3 74 0.7 E 32 35 17 19 985.9 - -
09/01:02am -7.5 -15.6 -11.3 74 0.7 E 26 32 14 17 985.7 - -
09/01:00am -7.5 -15.6 -11.5 73 0.7 E 26 32 14 17 985.7 - -
09/12:32am -5.7 -10.8 -9.7 73 0.9 NE 11 15 6 8 986.0 - -
09/12:30am -5.6 -10.7 -9.5 74 0.8 NE 11 15 6 8 986.0 - -
09/12:02am -5.8 -10.9 -9.5 75 0.8 NE 11 13 6 7 986.0 - -
09/12:00am -5.8 -10.9 -9.7 74 0.8 ENE 11 13 6 7 986.0 - -
 
Date/Time
EDT
Temp
°C
App
Temp
°C
Dew
Point
°C
Rel
Hum
%
Delta-T
°C
Wind Press
QNH
hPa
Press
MSL
hPa
Rain since
9am
mm
Dir  Spd
km/h
Gust
km/h
Spd
kts
Gust
kts
08/11:32pm -3.9 -8.1 -9.9 63 1.5 E 6 9 3 5 986.1 - -
08/11:30pm -3.6 -7.8 -9.8 62 1.5 E 6 9 3 5 986.1 - -
08/11:04pm - - - - - - - - - - - - -
08/11:02pm -4.0 -8.8 -10.2 62 1.5 ESE 9 15 5 8 986.0 - -
08/11:00pm -4.2 -8.9 -9.8 65 1.4 ESE 9 15 5 8 986.0 - -
08/10:32pm 0.2 -3.5 -9.0 50 2.7 E 4 4 2 2 986.0 - -
08/10:30pm 0.4 -3.3 -8.8 50 2.7 E 4 6 2 3 986.0 - -
08/10:02pm 0.1 -4.0 -8.8 51 2.6 NE 6 7 3 4 986.1 - -
08/10:00pm 0.1 -4.0 -8.6 52 2.6 NE 6 7 3 4 986.1 - -
08/09:32pm -0.6 -4.6 -7.8 58 2.1 SSE 6 6 3 3 986.0 - -
08/09:30pm -0.8 -4.8 -7.4 61 2.0 SSE 6 6 3 3 985.9 - -
08/09:02pm -0.2 -3.8 -7.2 59 2.1 S 4 6 2 3 985.9 - -
08/09:00pm -0.3 -3.9 -7.3 59 2.1 S 4 6 2 3 985.9 - -
08/08:32pm -1.4 -5.0 -7.3 64 1.7 WSW 4 6 2 3 986.0 - -
08/08:30pm -1.3 -4.9 -7.4 63 1.8 WSW 4 6 2 3 986.0 - -
08/08:04pm - - - - - - - - - - - - -
08/08:02pm -2.6 -6.8 -7.3 70 1.3 WNW 7 9 4 5 986.1 - -
08/08:00pm -2.6 -6.8 -7.3 70 1.3 WNW 7 9 4 5 986.1 - -
08/07:32pm -2.2 -6.4 -7.5 67 1.5 WNW 7 11 4 6 986.1 - -
08/07:30pm -2.0 -6.1 -7.1 68 1.4 WNW 7 11 4 6 986.1 - -
08/07:02pm -0.5 -4.8 -8.9 53 2.4 NNE 7 11 4 6 986.0 - -
08/07:00pm -0.5 -4.8 -9.4 51 2.5 NNE 7 13 4 7 986.0 - -
08/06:32pm -1.0 -6.9 -9.3 53 2.3 NNE 15 20 8 11 985.9 - -
08/06:30pm -1.1 -6.9 -9.2 54 2.3 NE 15 20 8 11 985.9 - -
08/06:02pm 1.6 -2.6 -9.9 42 3.4 NNE 6 9 3 5 986.0 - -
08/06:00pm 2.0 -1.8 -10.2 40 3.7 NNE 4 9 2 5 986.0 - -
08/05:32pm 2.8 -1.0 -10.1 38 4.0 NNE 4 7 2 4 986.1 - -
08/05:30pm 2.7 -1.1 -10.2 38 3.9 NNE 4 7 2 4 986.1 - -
08/05:04pm - - - - - - - - - - - - -
08/05:02pm 3.1 -0.4 -10.5 36 4.1 E 2 7 1 4 986.2 - -
08/05:00pm 2.9 -0.6 -11.0 35 4.2 NE 2 4 1 2 986.2 - -
08/04:57pm 3.2 0.3 -8.5 42 3.8 CALM 0 2 0 1 986.2 - -
08/04:53pm 2.9 -0.5 -9.3 40 3.8 ESE 2 6 1 3 986.2 - -
08/04:32pm -2.2 -7.7 -10.2 54 2.1 SE 13 19 7 10 986.2 - -
08/04:30pm -1.9 -7.5 -10.7 51 2.3 SE 13 19 7 10 986.2 - -
08/04:02pm -1.8 -8.0 -9.4 56 2.1 SSE 17 20 9 11 986.2 - -
08/04:00pm -1.8 -8.1 -10.1 53 2.2 SSE 17 20 9 11 986.2 - -
08/03:32pm -2.2 -8.0 -8.9 60 1.8 SSE 15 17 8 9 986.1 - -
08/03:30pm -2.4 -8.3 -9.3 59 1.8 SSE 15 17 8 9 986.1 - -
08/03:02pm -1.5 -6.6 -9.3 55 2.2 SSE 11 15 6 8 986.2 - -
08/03:00pm -1.3 -6.4 -9.4 54 2.3 SSE 11 15 6 8 986.2 - -
08/02:32pm -1.9 -6.3 -9.9 54 2.1 SE 7 9 4 5 986.3 - -
08/02:30pm -2.2 -6.6 -10.5 53 2.2 SE 7 9 4 5 986.3 - -
08/02:04pm - - - - - - - - - - - - -
08/02:02pm -2.5 -6.9 -10.7 53 2.1 ESE 7 11 4 6 986.4 - -
08/02:00pm -2.9 -7.3 -10.9 54 2.1 ESE 7 11 4 6 986.4 - -
08/01:32pm -1.5 -6.6 -9.8 53 2.3 ENE 11 13 6 7 986.5 - -
08/01:30pm -2.0 -7.1 -10.0 54 2.1 ENE 11 13 6 7 986.5 - -
08/01:02pm -2.3 -7.8 -10.3 54 2.1 ENE 13 15 7 8 986.5 - -
08/01:00pm -2.5 -7.7 -10.7 53 2.1 ENE 11 15 6 8 986.5 - -
08/12:32pm -3.1 -8.7 -10.8 55 1.9 E 13 15 7 8 986.5 - -
08/12:30pm -3.0 -8.6 -11.0 54 2.0 E 13 15 7 8 986.5 - -
08/12:02pm -5.0 -11.3 -10.7 64 1.3 ENE 17 20 9 11 986.6 - -
08/12:00pm -5.3 -11.7 -11.2 63 1.3 E 17 20 9 11 986.6 - -
08/11:32am -5.7 -12.5 -11.4 64 1.2 ENE 19 22 10 12 986.6 - -
08/11:30am -5.8 -12.6 -11.5 64 1.2 ENE 19 22 10 12 986.6 - -
08/11:04am - - - - - - - - - - - - -
08/11:02am -6.6 -13.6 -11.7 67 1.0 ENE 20 24 11 13 986.5 - -
08/11:00am -6.8 -13.8 -11.9 67 1.0 E 20 24 11 13 986.5 - -
08/10:32am -7.6 -14.6 -12.8 66 1.0 E 20 24 11 13 986.6 - -
08/10:30am -7.7 -14.8 -13.1 65 1.0 E 20 24 11 13 986.6 - -
08/10:02am -8.0 -15.5 -13.4 65 1.0 ENE 22 26 12 14 986.5 - -
08/10:00am -8.1 -15.9 -13.5 65 1.0 ENE 24 26 13 14 986.5 - -
08/09:32am -8.4 -16.6 -13.8 65 0.9 E 26 30 14 16 986.5 - -
08/09:30am -8.5 -16.7 -13.9 65 0.9 E 26 30 14 16 986.5 - -
08/09:02am -8.8 -17.5 -14.3 64 0.9 E 28 32 15 17 986.5 - -
08/09:00am -8.8 -17.5 -14.5 63 1.0 E 28 32 15 17 986.5 - -
08/08:32am -9.5 -18.2 -15.2 63 0.9 E 28 32 15 17 986.5 - -
08/08:30am -9.6 -18.3 -15.3 63 0.9 E 28 32 15 17 986.5 - -
08/08:04am - - - - - - - - - - - - -
08/08:02am -9.7 -18.4 -15.2 64 0.9 E 28 33 15 18 986.5 - -
08/08:00am -9.6 -18.3 -15.3 63 0.9 E 28 33 15 18 986.5 - -
08/07:32am -9.7 -19.2 -15.2 64 0.9 E 32 35 17 19 986.3 - -
08/07:02am -10.1 -19.2 -15.4 65 0.8 E 30 33 16 18 986.4 - -
08/07:00am -10.1 -19.2 -15.2 66 0.8 E 30 33 16 18 986.4 - -
08/06:32am -11.0 -20.1 -15.7 68 0.6 E 30 32 16 17 986.4 - -
08/06:30am -11.1 -19.8 -15.8 68 0.6 E 28 32 15 17 986.4 - -
08/06:02am -12.4 -21.5 -16.1 74 0.4 E 30 35 16 19 986.6 - -
08/06:00am -12.5 -21.6 -16.0 75 0.4 E 30 35 16 19 986.6 - -
08/05:32am -12.0 -21.5 -15.8 73 0.4 E 32 33 17 18 986.6 - -
08/05:30am -11.9 -21.4 -15.9 72 0.5 E 32 35 17 19 986.6 - -
08/05:04am - - - - - - - - - - - - -
08/05:02am -12.0 -21.1 -15.7 74 0.4 E 30 33 16 18 986.6 - -
08/05:00am -12.0 -21.1 -15.7 74 0.4 E 30 33 16 18 986.7 - -
08/04:32am -12.0 -21.1 -15.8 73 0.4 E 30 33 16 18 986.9 - -
08/04:30am -12.0 -21.1 -15.8 73 0.4 E 30 32 16 17 986.9 - -
08/04:02am -12.3 -21.0 -16.1 73 0.4 E 28 32 15 17 986.9 - -
08/04:00am -12.3 -21.4 -16.1 73 0.4 E 30 32 16 17 986.9 - -
08/03:32am -12.7 -21.5 -16.5 73 0.4 E 28 30 15 16 987.0 - -
08/03:30am -12.7 -21.5 -16.5 73 0.4 E 28 30 15 16 987.0 - -
08/03:02am -12.8 -21.2 -16.4 74 0.4 E 26 28 14 15 987.1 - -
08/03:00am -12.7 -21.1 -16.3 74 0.4 E 26 28 14 15 987.1 - -
08/02:32am -12.5 -20.5 -16.0 75 0.4 E 24 28 13 15 987.1 - -
08/02:30am -12.5 -20.5 -16.0 75 0.4 E 24 26 13 14 987.1 - -
08/02:04am - - - - - - - - - - - - -
08/02:02am -11.7 -19.3 -15.4 74 0.4 E 22 24 12 13 987.1 - -
08/02:00am -11.8 -19.4 -15.5 74 0.4 E 22 24 12 13 987.1 - -
08/01:32am -10.8 -18.3 -14.2 76 0.4 ENE 22 22 12 12 987.1 - -
08/01:30am -10.7 -17.8 -14.2 75 0.4 ENE 20 22 11 12 987.1 - -
08/01:02am -8.6 -15.7 -12.9 71 0.7 ENE 20 22 11 12 987.0 - -
08/01:00am -8.3 -15.3 -12.6 71 0.7 ENE 20 22 11 12 987.0 - -
08/12:32am -7.3 -14.0 -10.1 80 0.5 E 19 19 10 10 987.0 - -
08/12:30am -7.2 -13.9 -10.0 80 0.5 E 19 19 10 10 987.0 - -
08/12:02am -6.3 -11.3 -8.2 86 0.3 ESE 11 13 6 7 987.1 - -
08/12:00am -6.3 -11.3 -8.1 87 0.3 ESE 11 13 6 7 987.1 - -
 
Date/Time
EDT
Temp
°C
App
Temp
°C
Dew
Point
°C
Rel
Hum
%
Delta-T
°C
Wind Press
QNH
hPa
Press
MSL
hPa
Rain since
9am
mm
Dir  Spd
km/h
Gust
km/h
Spd
kts
Gust
kts
07/11:32pm -5.5 -10.8 -7.5 86 0.4 SE 13 15 7 8 987.1 - -
07/11:30pm -5.4 -10.7 -7.4 86 0.4 SE 13 15 7 8 987.1 - -
07/11:04pm - - - - - - - - - - - - -
07/11:02pm -5.1 -11.1 -6.8 88 0.3 SSE 17 22 9 12 987.2 - -
07/11:00pm -5.1 -11.1 -6.8 88 0.3 SSE 17 22 9 12 987.2 - -
07/10:32pm -4.7 -11.1 -6.4 88 0.3 SSE 19 24 10 13 987.3 - -
07/10:30pm -4.7 -11.1 -6.4 88 0.3 SSE 19 24 10 13 987.3 - -
07/10:02pm -4.6 -11.1 -6.4 87 0.4 SSE 20 24 11 13 987.3 - -
07/10:00pm -4.5 -11.0 -6.3 87 0.4 SSE 20 24 11 13 987.3 - -
07/09:32pm -4.4 -10.7 -6.2 87 0.4 SSE 19 22 10 12 987.4 - -
07/09:30pm -4.3 -10.6 -6.1 87 0.4 SSE 19 22 10 12 987.4 - -
07/09:02pm -4.1 -10.4 -6.1 86 0.4 SSE 19 20 10 11 987.5 - -
07/09:00pm -4.1 -10.4 -6.1 86 0.4 SSE 19 20 10 11 987.4 - -
07/08:32pm -3.6 -9.5 -5.9 84 0.6 S 17 20 9 11 987.4 - -
07/08:30pm -3.6 -9.5 -5.9 84 0.6 S 17 19 9 10 987.4 - -
07/08:04pm - - - - - - - - - - - - -
07/08:02pm -3.3 -9.2 -6.1 81 0.7 SSE 17 19 9 10 987.4 - -
07/08:00pm -3.2 -9.1 -6.0 81 0.7 SSE 17 19 9 10 987.4 - -
07/07:32pm -3.0 -8.6 -6.0 80 0.8 S 15 19 8 10 987.4 - -
07/07:30pm -3.0 -8.6 -6.1 79 0.8 S 15 19 8 10 987.4 - -
07/07:02pm -2.5 -7.7 -6.1 76 1.0 S 13 17 7 9 987.4 - -
07/07:00pm -2.4 -7.6 -6.0 76 1.0 S 13 17 7 9 987.3 - -
07/06:32pm -1.6 -6.8 -5.8 73 1.2 SSE 13 17 7 9 987.4 - -
07/06:30pm -1.6 -6.8 -6.0 72 1.3 SSE 13 17 7 9 987.4 - -
07/06:02pm -1.0 -5.8 -6.0 69 1.5 SSE 11 13 6 7 987.5 - -
07/06:00pm -0.9 -5.7 -6.0 68 1.6 SSE 11 13 6 7 987.5 - -
07/05:32pm -0.5 -4.1 -7.5 59 2.1 SE 4 9 2 5 987.4 - -
07/05:30pm -0.3 -3.9 -7.5 58 2.2 SE 4 9 2 5 987.4 - -
07/05:04pm - - - - - - - - - - - - -
07/05:02pm 2.1 -1.4 -6.7 52 2.9 E 4 4 2 2 987.4 - -
07/05:00pm 2.1 -1.4 -6.5 53 2.9 E 4 4 2 2 987.4 - -
07/04:32pm 1.0 -2.5 -6.3 58 2.4 NE 4 6 2 3 987.2 - -
07/04:30pm 0.9 -2.6 -6.2 59 2.3 NE 4 6 2 3 987.2 - -
07/04:02pm 0.3 -3.6 -6.3 61 2.1 NNE 6 6 3 3 987.2 - -
07/04:00pm 0.3 -3.6 -6.3 61 2.1 NNE 6 6 3 3 987.2 - -
07/03:32pm -0.1 -4.2 -6.3 63 1.9 N 7 9 4 5 987.2 - -
07/03:30pm -0.2 -4.3 -6.2 64 1.9 N 7 9 4 5 987.3 - -
07/03:02pm -1.9 -6.4 -7.2 67 1.5 NNE 9 11 5 6 987.1 - -
07/03:00pm -1.9 -6.4 -7.2 67 1.5 NNE 9 11 5 6 987.1 - -
07/02:30pm -2.4 -7.3 -6.9 71 1.3 NE 11 13 6 7 987.1 - -
07/02:02pm -2.8 -7.7 -6.9 73 1.1 NE 11 13 6 7 986.9 - -
07/02:00pm -2.8 -7.7 -6.9 73 1.1 NE 11 15 6 8 986.9 - -
07/01:32pm -2.9 -7.8 -6.9 74 1.1 NNE 11 15 6 8 986.9 - -
07/01:30pm -2.9 -7.8 -6.9 74 1.1 NE 11 15 6 8 986.7 - -
07/01:02pm -3.2 -7.7 -6.8 76 0.9 NNE 9 11 5 6 986.7 - -
07/01:00pm -3.3 -8.2 -6.9 76 0.9 NNE 11 13 6 7 986.7 - -
07/12:32pm -4.1 -9.4 -7.2 79 0.7 NE 13 15 7 8 986.6 - -
07/12:30pm -4.1 -9.4 -7.2 79 0.7 NE 13 15 7 8 986.6 - -
07/12:02pm -4.4 -10.1 -7.3 80 0.7 NNE 15 17 8 9 986.6 - -
07/12:00pm -4.4 -10.1 -7.3 80 0.7 NNE 15 17 8 9 986.6 - -
07/11:32am -4.4 -9.7 -7.3 80 0.7 NNE 13 15 7 8 986.7 - -
07/11:30am -4.4 -9.7 -7.5 79 0.7 NNE 13 15 7 8 986.7 - -
07/11:00am -4.5 -9.8 -7.4 80 0.7 NNE 13 17 7 9 986.6 - -
07/10:30am -4.7 -10.4 -7.4 81 0.6 NNE 15 19 8 10 986.5 - -
07/10:00am -4.7 -10.0 -7.3 82 0.6 NE 13 15 7 8 986.2 - -
07/09:30am -4.8 -9.7 -7.2 83 0.5 NE 11 11 6 6 986.2 - -
07/09:00am -5.0 -9.5 -7.3 84 0.5 NE 9 9 5 5 986.3 - -
07/08:30am -5.1 -9.6 -7.1 86 0.4 NE 9 9 5 5 986.2 - -
07/08:00am -5.3 -9.8 -7.3 86 0.4 NE 9 9 5 5 986.2 - -
07/07:30am -5.2 -9.2 -7.3 85 0.4 NE 6 9 3 5 986.2 - -
07/07:00am -5.3 -8.5 -7.0 88 0.3 NNE 2 6 1 3 986.2 - -
07/06:30am -5.8 -9.8 -7.3 89 0.2 ENE 6 6 3 3 986.1 - -
07/06:00am -6.0 -10.0 -7.5 89 0.2 NE 6 7 3 4 986.0 - -
07/05:30am -6.1 -10.1 -7.6 89 0.2 NE 6 6 3 3 986.0 - -
07/05:00am -6.1 -9.7 -7.5 90 0.2 NNE 4 6 2 3 986.0 - -
07/04:30am -6.1 -9.7 -7.5 90 0.2 NNE 4 6 2 3 986.1 - -
07/04:00am -5.7 -8.9 -6.8 92 0.1 NE 2 2 1 1 986.2 - -
07/03:30am -5.5 -8.6 -6.6 92 0.1 NNE 2 4 1 2 986.2 - -
07/03:00am -5.3 -8.8 -6.4 92 0.1 N 4 6 2 3 986.1 - -
07/02:52am -5.2 -8.7 -6.3 92 0.1 NNE 4 6 2 3 986.1 - -
07/02:40am -5.1 -8.2 -6.3 91 0.2 NNE 2 4 1 2 986.1 - -
07/02:30am -5.1 -8.2 -6.5 90 0.2 N 2 4 1 2 986.1 - -
07/02:15am -5.1 -8.6 -6.6 89 0.2 N 4 6 2 3 986.1 - -
07/02:00am -4.9 -8.4 -6.6 88 0.3 NNW 4 4 2 2 986.1 - -
07/01:30am -4.4 -7.2 -7.0 82 0.6 CALM 0 2 0 1 986.1 - -
07/01:00am -4.2 -7.8 -7.3 79 0.7 S 4 4 2 2 986.1 - -
07/12:30am -4.1 -7.7 -7.2 79 0.7 SE 4 6 2 3 986.1 - -
07/12:00am -3.8 -7.8 -7.1 78 0.8 SSE 6 7 3 4 986.1 - -

Other Formats:

Comma delimited format used in spreadsheet applications
http://www.bom.gov.au/fwo/IDT60803/IDT60803.89809.axf

JavaScript Object Notation format (JSON) in row-major order
http://www.bom.gov.au/fwo/IDT60803/IDT60803.89809.json